Time;durP1;ratioP1;P1;durP2;ratioP2;P2;SDS_P1;SDS_P2;PMS_P1;PMS_P2;Temp;Humidity;BMP_temperature;BMP_pressure;BME280_temperature;BME280_humidity;BME280_pressure;Samples;Min_cycle;Max_cycle;Signal;HPM_P1;HPM_P2
2021/07/07 00:00:55;;;;;;;4.50;2.40;;;15.90;99.90;;;;;;5047616;28;20833;-38
2021/07/07 00:03:20;;;;;;;2.00;1.53;;;15.90;99.90;;;;;;5047316;28;20190;-38
2021/07/07 00:05:46;;;;;;;3.30;2.10;;;15.80;99.90;;;;;;5046561;28;20428;-38
2021/07/07 00:08:12;;;;;;;3.60;2.10;;;15.80;99.90;;;;;;5040026;28;20560;-38
2021/07/07 00:10:38;;;;;;;6.33;2.57;;;15.80;99.90;;;;;;5047372;28;20186;-38
2021/07/07 00:13:04;;;;;;;4.20;2.50;;;15.80;99.90;;;;;;5046854;28;20185;-38
2021/07/07 00:15:32;;;;;;;2.70;2.33;;;15.80;99.90;;;;;;5047532;28;20427;-38
2021/07/07 00:18:08;;;;;;;5.90;2.80;;;15.70;99.90;;;;;;5047397;28;20419;-39
2021/07/07 00:21:17;;;;;;;3.10;2.73;;;15.70;99.90;;;;;;5047265;28;20408;-39
2021/07/07 00:23:25;;;;;;;2.93;2.43;;;15.60;99.90;;;;;;5034206;28;20850;-39
2021/07/07 00:25:52;;;;;;;3.20;2.47;;;15.60;99.90;;;;;;5046393;28;20785;-38
2021/07/07 00:28:18;;;;;;;4.53;2.83;;;15.50;99.90;;;;;;5047387;28;20424;-39
2021/07/07 00:30:46;;;;;;;2.60;2.30;;;15.50;99.90;;;;;;5045665;28;20419;-38
2021/07/07 00:33:12;;;;;;;3.73;2.30;;;15.50;99.90;;;;;;5046637;28;20424;-38
2021/07/07 00:35:37;;;;;;;2.80;2.30;;;15.60;99.90;;;;;;5047161;28;20466;-39
2021/07/07 00:38:03;;;;;;;4.80;2.50;;;15.60;99.90;;;;;;5034902;28;20437;-39
2021/07/07 00:40:29;;;;;;;6.60;2.80;;;15.60;99.90;;;;;;5047127;28;20201;-39
2021/07/07 00:42:55;;;;;;;4.63;2.33;;;15.60;99.90;;;;;;5046527;28;20644;-39
2021/07/07 00:45:21;;;;;;;4.90;2.70;;;15.60;99.90;;;;;;5045823;28;20580;-39
2021/07/07 00:47:47;;;;;;;3.53;2.30;;;15.60;99.90;;;;;;5045865;28;20428;-38
2021/07/07 00:50:14;;;;;;;4.00;2.53;;;15.60;99.90;;;;;;5046774;28;20189;-38
2021/07/07 00:52:41;;;;;;;3.03;2.80;;;15.60;99.90;;;;;;5039610;28;20436;-38
2021/07/07 00:55:09;;;;;;;3.70;2.40;;;15.60;99.90;;;;;;5039698;28;20907;-38
2021/07/07 00:57:35;;;;;;;4.83;2.50;;;15.60;99.90;;;;;;5046725;28;20431;-38
2021/07/07 01:00:06;;;;;;;4.87;2.53;;;15.50;99.90;;;;;;5046554;28;20478;-38
2021/07/07 01:02:35;;;;;;;5.10;3.17;;;15.50;99.90;;;;;;5046487;28;20466;-39
2021/07/07 01:05:01;;;;;;;3.00;2.20;;;15.50;99.90;;;;;;5046129;28;20416;-39
2021/07/07 01:07:26;;;;;;;2.70;2.23;;;15.40;99.90;;;;;;5039018;28;20453;-38
2021/07/07 01:09:52;;;;;;;2.20;2.00;;;15.40;99.90;;;;;;5039479;28;20182;-38
2021/07/07 01:12:18;;;;;;;3.80;2.87;;;15.30;99.90;;;;;;5046468;28;20233;-39
2021/07/07 01:14:44;;;;;;;7.83;3.07;;;15.20;99.90;;;;;;5045906;28;20440;-38
2021/07/07 01:17:09;;;;;;;6.00;2.63;;;15.30;99.90;;;;;;5046045;28;20190;-39
2021/07/07 01:19:35;;;;;;;4.10;2.50;;;15.30;99.90;;;;;;5055315;28;20193;-39
2021/07/07 01:22:01;;;;;;;6.90;2.63;;;15.30;99.90;;;;;;5062070;28;20209;-38
2021/07/07 01:24:27;;;;;;;3.57;2.40;;;15.40;99.90;;;;;;5037070;28;20189;-38
2021/07/07 01:26:52;;;;;;;5.97;2.63;;;15.40;99.90;;;;;;5046175;28;20759;-39
2021/07/07 01:29:18;;;;;;;5.00;2.67;;;15.40;99.90;;;;;;5045174;28;20185;-38
2021/07/07 01:31:44;;;;;;;4.50;2.53;;;15.30;99.90;;;;;;5044155;28;20276;-38
2021/07/07 01:34:10;;;;;;;4.67;3.23;;;15.20;99.90;;;;;;5045893;28;20181;-38
2021/07/07 01:36:37;;;;;;;3.33;2.70;;;15.20;99.90;;;;;;5045305;28;20425;-38
2021/07/07 01:39:08;;;;;;;4.93;3.00;;;15.20;99.90;;;;;;5039275;28;20523;-38
2021/07/07 01:41:33;;;;;;;3.63;2.40;;;15.10;99.90;;;;;;5045849;28;20491;-38
2021/07/07 01:43:59;;;;;;;4.17;3.70;;;15.10;99.90;;;;;;5045543;28;20483;-38
2021/07/07 01:46:26;;;;;;;4.80;2.70;;;15.10;99.90;;;;;;5046047;28;21224;-38
2021/07/07 01:48:52;;;;;;;4.20;2.50;;;15.00;99.90;;;;;;5045066;28;20585;-38
2021/07/07 01:51:19;;;;;;;4.97;2.80;;;15.00;99.90;;;;;;5046212;28;20427;-38
2021/07/07 01:53:45;;;;;;;2.80;2.43;;;15.00;99.90;;;;;;5036057;28;20602;-39
2021/07/07 01:56:11;;;;;;;4.03;2.80;;;15.00;99.90;;;;;;5045954;28;20511;-38
2021/07/07 01:58:37;;;;;;;4.23;2.70;;;15.00;99.90;;;;;;5045963;28;20463;-38
2021/07/07 02:01:05;;;;;;;9.27;2.87;;;15.10;99.90;;;;;;5045919;28;21183;-38
2021/07/07 02:03:31;;;;;;;5.13;3.00;;;15.10;99.90;;;;;;5045627;28;20247;-38
2021/07/07 02:05:57;;;;;;;4.57;2.60;;;15.20;99.90;;;;;;5045930;28;20519;-38
2021/07/07 02:08:23;;;;;;;4.63;2.63;;;15.20;99.90;;;;;;5034067;28;20535;-38
2021/07/07 02:10:48;;;;;;;6.13;3.70;;;15.30;99.90;;;;;;5044652;28;20213;-38
2021/07/07 02:13:14;;;;;;;5.97;2.80;;;15.40;99.90;;;;;;5045270;28;20244;-38
2021/07/07 02:15:40;;;;;;;6.17;2.73;;;15.40;99.90;;;;;;5045655;28;20265;-38
2021/07/07 02:18:07;;;;;;;6.13;3.20;;;15.50;99.90;;;;;;5044772;28;20194;-38
2021/07/07 02:20:35;;;;;;;6.97;3.60;;;15.40;99.90;;;;;;5045940;28;20569;-38
2021/07/07 02:23:02;;;;;;;9.40;3.97;;;15.50;99.90;;;;;;5039338;28;20468;-38
2021/07/07 02:25:31;;;;;;;3.70;2.73;;;15.60;99.90;;;;;;5042429;28;20467;-38
2021/07/07 02:27:58;;;;;;;4.20;2.67;;;15.60;99.90;;;;;;5037737;28;20462;-38
2021/07/07 02:30:27;;;;;;;4.97;3.03;;;15.50;99.90;;;;;;5044277;28;20867;-38
2021/07/07 02:32:54;;;;;;;6.30;2.80;;;15.50;99.90;;;;;;5045086;28;20420;-38
2021/07/07 02:35:28;;;;;;;9.10;2.90;;;15.50;99.90;;;;;;5044405;28;20419;-38
2021/07/07 02:37:55;;;;;;;7.63;3.57;;;15.50;99.90;;;;;;5039559;28;20494;-38
2021/07/07 02:40:27;;;;;;;7.40;3.90;;;15.40;99.90;;;;;;5043915;28;20416;-38
2021/07/07 02:42:54;;;;;;;4.70;3.23;;;15.40;99.90;;;;;;5044749;28;20595;-38
2021/07/07 02:45:21;;;;;;;6.63;2.60;;;15.40;99.90;;;;;;5045921;28;20431;-38
2021/07/07 02:47:48;;;;;;;4.63;2.43;;;15.40;99.90;;;;;;5045678;28;20970;-38
2021/07/07 02:50:16;;;;;;;3.43;2.50;;;15.40;99.90;;;;;;5047488;28;20421;-38
2021/07/07 02:52:44;;;;;;;3.40;2.33;;;15.40;99.90;;;;;;5045186;28;20447;-38
2021/07/07 02:55:11;;;;;;;4.40;2.70;;;15.30;99.90;;;;;;5041577;28;20420;-38
2021/07/07 03:00:41;;;;;;;3.57;3.03;;;15.20;99.90;;;;;;5072473;28;20482;-38
2021/07/07 03:03:10;;;;;;;5.47;2.90;;;15.10;99.90;;;;;;5056617;28;20434;-38
2021/07/07 03:05:39;;;;;;;10.40;3.50;;;15.10;99.90;;;;;;5068320;28;20415;-38
2021/07/07 03:08:06;;;;;;;3.80;2.70;;;15.10;99.90;;;;;;5057629;28;20449;-38
2021/07/07 03:10:32;;;;;;;8.40;3.30;;;15.20;99.90;;;;;;5045170;28;20515;-38
2021/07/07 03:12:57;;;;;;;4.40;2.90;;;15.30;99.90;;;;;;5048370;28;20507;-38
2021/07/07 03:15:25;;;;;;;7.50;3.53;;;15.40;99.90;;;;;;5048677;28;20232;-38
2021/07/07 03:17:51;;;;;;;3.93;2.60;;;15.40;99.90;;;;;;5048344;28;20194;-38
2021/07/07 03:20:17;;;;;;;5.93;2.60;;;15.50;99.90;;;;;;5047118;28;20478;-38
2021/07/07 03:22:43;;;;;;;7.80;2.80;;;15.50;99.90;;;;;;5046805;28;20494;-38
2021/07/07 03:25:09;;;;;;;5.10;2.70;;;15.50;99.90;;;;;;5033934;28;20184;-38
2021/07/07 03:27:35;;;;;;;6.20;2.87;;;15.60;99.90;;;;;;5048183;28;20735;-38
2021/07/07 03:30:02;;;;;;;5.97;2.70;;;15.60;99.90;;;;;;5047346;28;20430;-38
2021/07/07 03:32:28;;;;;;;3.03;2.30;;;15.60;99.90;;;;;;5048087;28;20194;-38
2021/07/07 03:34:54;;;;;;;5.67;2.67;;;15.60;99.90;;;;;;5047295;28;20432;-38
2021/07/07 03:37:20;;;;;;;6.07;3.20;;;15.60;99.90;;;;;;5048479;28;20182;-39
2021/07/07 03:39:45;;;;;;;5.40;3.23;;;15.60;99.90;;;;;;5035737;28;20202;-38
2021/07/07 03:42:11;;;;;;;5.00;2.80;;;15.50;99.90;;;;;;5047569;28;20805;-38
2021/07/07 03:44:37;;;;;;;6.50;2.70;;;15.50;99.90;;;;;;5047605;28;20217;-38
2021/07/07 03:47:02;;;;;;;4.53;2.50;;;15.50;99.90;;;;;;5046605;28;20192;-38
2021/07/07 03:49:28;;;;;;;3.63;2.90;;;15.60;99.90;;;;;;5048306;28;20196;-38
2021/07/07 03:51:54;;;;;;;3.30;2.60;;;15.60;99.90;;;;;;5048125;28;20280;-38
2021/07/07 03:54:23;;;;;;;6.63;2.93;;;15.60;99.90;;;;;;5038282;28;20221;-38
2021/07/07 03:56:49;;;;;;;6.00;3.13;;;15.70;99.90;;;;;;5047563;28;20190;-38
2021/07/07 03:59:15;;;;;;;5.80;2.80;;;15.70;99.90;;;;;;5047161;28;20429;-39
2021/07/07 04:01:41;;;;;;;4.00;2.40;;;15.70;99.90;;;;;;5047181;28;20452;-38
2021/07/07 04:04:06;;;;;;;6.80;2.60;;;15.70;99.90;;;;;;5046951;28;20186;-38
2021/07/07 04:06:32;;;;;;;7.90;3.13;;;15.70;99.90;;;;;;5046346;28;20194;-38
2021/07/07 04:08:57;;;;;;;5.20;2.90;;;15.70;99.90;;;;;;5041987;28;20192;-38
2021/07/07 04:11:23;;;;;;;5.20;2.50;;;15.70;99.90;;;;;;5042873;28;20203;-38
2021/07/07 04:13:49;;;;;;;7.00;3.17;;;15.70;99.90;;;;;;5046571;28;20198;-38
2021/07/07 04:16:14;;;;;;;7.13;2.77;;;15.70;99.90;;;;;;5047277;28;20225;-38
2021/07/07 04:18:40;;;;;;;4.30;3.00;;;15.70;99.90;;;;;;5047372;28;20182;-38
2021/07/07 04:21:05;;;;;;;4.33;2.70;;;15.80;99.90;;;;;;5047475;28;20393;-38
2021/07/07 04:23:31;;;;;;;2.47;2.20;;;15.70;99.90;;;;;;5052175;28;20563;-38
2021/07/07 04:25:57;;;;;;;5.70;2.77;;;15.70;99.90;;;;;;5039357;28;20173;-38
2021/07/07 04:28:22;;;;;;;5.00;3.10;;;15.50;99.90;;;;;;5046784;28;20194;-38
2021/07/07 04:30:48;;;;;;;6.43;2.80;;;15.50;99.90;;;;;;5046082;28;20181;-39
2021/07/07 04:33:14;;;;;;;3.87;2.60;;;15.50;99.90;;;;;;5045086;28;20261;-38
2021/07/07 04:35:39;;;;;;;4.90;3.00;;;15.60;99.90;;;;;;5046785;28;20177;-39
2021/07/07 04:38:05;;;;;;;5.33;2.70;;;15.60;99.90;;;;;;5046664;28;20193;-38
2021/07/07 04:40:31;;;;;;;4.23;2.70;;;15.60;99.90;;;;;;5035745;28;20186;-38
2021/07/07 04:42:57;;;;;;;6.27;2.73;;;15.70;99.90;;;;;;5046242;28;20236;-39
2021/07/07 04:45:22;;;;;;;4.23;2.60;;;15.70;99.90;;;;;;5046750;28;20424;-38
2021/07/07 04:47:48;;;;;;;5.93;2.50;;;15.90;99.90;;;;;;5047112;28;20189;-38
2021/07/07 04:50:18;;;;;;;6.83;3.20;;;15.90;99.90;;;;;;5047335;28;20181;-38
2021/07/07 04:52:43;;;;;;;5.83;2.57;;;16.00;99.90;;;;;;5045644;28;20443;-38
2021/07/07 04:55:11;;;;;;;4.57;2.30;;;16.10;99.90;;;;;;5037873;28;20428;-38
2021/07/07 04:57:40;;;;;;;4.80;2.80;;;16.20;99.90;;;;;;5046630;28;20840;-38
2021/07/07 05:00:26;;;;;;;7.23;2.70;;;16.30;99.90;;;;;;5046402;28;20998;-38
2021/07/07 05:02:52;;;;;;;7.03;3.07;;;16.40;99.90;;;;;;5046131;28;20460;-38
2021/07/07 05:05:20;;;;;;;7.60;2.70;;;16.50;99.90;;;;;;5045758;28;20428;-38
2021/07/07 05:07:47;;;;;;;5.27;2.20;;;16.60;99.90;;;;;;5046574;28;20442;-38
2021/07/07 05:10:14;;;;;;;2.83;2.30;;;16.70;99.90;;;;;;5036921;28;20941;-38
2021/07/07 05:12:40;;;;;;;5.03;2.50;;;16.80;99.90;;;;;;5045212;28;20439;-38
2021/07/07 05:15:07;;;;;;;5.77;2.40;;;16.90;99.90;;;;;;5033905;28;20935;-38
2021/07/07 05:17:33;;;;;;;4.70;2.37;;;17.00;99.90;;;;;;5055030;28;20811;-38
2021/07/07 05:19:59;;;;;;;5.30;2.90;;;17.10;99.90;;;;;;5038777;28;20427;-38
2021/07/07 05:22:26;;;;;;;6.30;2.67;;;17.10;99.90;;;;;;5046203;28;20574;-38
2021/07/07 05:24:52;;;;;;;3.90;2.33;;;17.20;99.90;;;;;;5033976;28;20610;-38
2021/07/07 05:27:17;;;;;;;4.60;2.57;;;17.20;99.90;;;;;;5044880;28;20412;-38
2021/07/07 05:29:43;;;;;;;5.00;2.53;;;17.30;99.90;;;;;;5045612;28;20193;-38
2021/07/07 05:32:09;;;;;;;3.67;2.40;;;17.40;99.90;;;;;;5045111;28;20185;-38
2021/07/07 05:34:37;;;;;;;4.50;2.47;;;17.50;99.90;;;;;;5045713;28;20224;-39
2021/07/07 05:37:03;;;;;;;5.17;2.50;;;17.60;99.90;;;;;;5046150;28;20443;-39
2021/07/07 05:39:28;;;;;;;7.20;2.30;;;17.70;99.90;;;;;;5039058;28;20437;-38
2021/07/07 05:41:54;;;;;;;10.00;2.97;;;17.80;99.90;;;;;;5039036;28;20464;-38
2021/07/07 05:44:20;;;;;;;7.60;2.87;;;17.90;99.90;;;;;;5045782;28;20236;-38
2021/07/07 05:46:45;;;;;;;5.73;2.63;;;18.10;99.90;;;;;;5044504;28;20193;-38
2021/07/07 05:49:11;;;;;;;4.17;1.97;;;18.20;99.90;;;;;;5046217;28;20555;-38
2021/07/07 05:51:37;;;;;;;5.70;2.60;;;18.30;99.90;;;;;;5045778;28;20190;-38
2021/07/07 05:54:03;;;;;;;6.13;2.97;;;18.40;99.90;;;;;;5045859;28;20288;-38
2021/07/07 05:56:28;;;;;;;10.87;2.93;;;18.60;99.90;;;;;;5046057;28;20190;-38
2021/07/07 05:58:54;;;;;;;3.80;2.27;;;18.70;99.90;;;;;;5032530;28;20432;-38
2021/07/07 06:01:20;;;;;;;3.23;2.40;;;18.80;99.90;;;;;;5045502;28;20323;-38
2021/07/07 06:03:45;;;;;;;3.00;2.20;;;18.90;99.90;;;;;;5045472;28;20189;-38
2021/07/07 06:06:11;;;;;;;4.67;2.30;;;19.00;99.90;;;;;;5059777;28;20719;-38
2021/07/07 06:08:37;;;;;;;5.17;2.43;;;19.10;99.90;;;;;;5064497;28;20213;-38
2021/07/07 06:11:03;;;;;;;3.37;2.13;;;19.20;99.90;;;;;;5064551;28;20200;-38
2021/07/07 06:13:28;;;;;;;4.80;2.67;;;19.30;99.90;;;;;;5065320;28;20659;-38
2021/07/07 06:15:54;;;;;;;6.03;3.20;;;19.40;99.90;;;;;;5037288;28;20247;-38
2021/07/07 06:18:20;;;;;;;7.50;2.67;;;19.50;99.90;;;;;;5047578;28;20773;-38
2021/07/07 06:20:46;;;;;;;3.43;2.43;;;19.60;99.90;;;;;;5047759;28;20427;-38
2021/07/07 06:23:12;;;;;;;5.30;2.60;;;19.70;99.90;;;;;;5047663;28;20225;-39
2021/07/07 06:25:38;;;;;;;4.07;2.30;;;19.90;99.90;;;;;;5048560;28;20201;-39
2021/07/07 06:28:04;;;;;;;6.33;2.60;;;20.00;99.90;;;;;;5048090;28;20672;-38
2021/07/07 06:30:30;;;;;;;9.40;2.57;;;20.10;99.90;;;;;;5035016;28;20432;-39
2021/07/07 06:32:58;;;;;;;6.90;2.30;;;20.20;99.90;;;;;;5047949;28;20792;-38
2021/07/07 06:35:25;;;;;;;9.73;2.43;;;20.40;99.90;;;;;;5049023;28;20535;-38
2021/07/07 06:37:51;;;;;;;3.57;2.50;;;20.60;99.90;;;;;;5048920;28;20758;-38
2021/07/07 06:40:19;;;;;;;5.20;2.10;;;20.70;99.90;;;;;;5049492;28;20508;-39
2021/07/07 06:42:45;;;;;;;4.63;2.60;;;20.70;99.90;;;;;;5049180;28;20556;-39
2021/07/07 06:45:12;;;;;;;3.70;2.30;;;20.70;99.90;;;;;;5041335;28;20954;-39
2021/07/07 06:47:38;;;;;;;8.80;2.70;;;20.50;99.90;;;;;;5046638;28;20482;-38
2021/07/07 06:50:09;;;;;;;5.40;2.40;;;20.30;99.90;;;;;;5048991;28;20431;-38
2021/07/07 06:52:35;;;;;;;4.93;2.77;;;20.20;99.90;;;;;;5047559;28;20436;-38
2021/07/07 06:55:03;;;;;;;5.57;2.83;;;20.20;99.90;;;;;;5048418;28;20420;-38
2021/07/07 06:57:34;;;;;;;4.63;2.00;;;20.20;99.90;;;;;;5049221;28;20432;-38
2021/07/07 07:00:04;;;;;;;5.93;2.63;;;20.20;99.90;;;;;;5043920;28;20449;-38
2021/07/07 07:02:31;;;;;;;6.70;3.00;;;20.10;99.90;;;;;;5050013;28;20455;-39
2021/07/07 07:04:57;;;;;;;4.70;2.40;;;20.10;99.90;;;;;;5054744;28;20435;-38
2021/07/07 07:07:24;;;;;;;4.37;2.40;;;20.10;99.90;;;;;;5067461;28;20442;-39
2021/07/07 07:09:49;;;;;;;6.20;2.77;;;20.10;99.90;;;;;;5060929;28;20430;-38
2021/07/07 07:12:15;;;;;;;6.50;2.53;;;20.10;99.90;;;;;;5067594;28;20435;-38
2021/07/07 07:14:40;;;;;;;3.13;2.40;;;20.10;99.90;;;;;;5050347;28;20253;-39
2021/07/07 07:17:06;;;;;;;8.90;2.50;;;20.00;99.90;;;;;;5053405;28;20197;-39
2021/07/07 07:19:32;;;;;;;3.30;2.30;;;19.90;99.90;;;;;;5030378;28;20200;-38
2021/07/07 07:21:57;;;;;;;4.20;2.10;;;19.90;99.90;;;;;;5048292;28;20298;-38
2021/07/07 07:24:23;;;;;;;3.03;2.10;;;19.90;99.90;;;;;;5050983;28;20209;-38
2021/07/07 07:26:49;;;;;;;3.60;2.53;;;19.90;99.90;;;;;;5051734;28;20190;-39
2021/07/07 07:29:15;;;;;;;7.67;2.60;;;19.90;99.90;;;;;;5053627;28;20420;-38
2021/07/07 07:31:41;;;;;;;3.03;2.50;;;20.00;99.90;;;;;;5035513;28;20195;-39
2021/07/07 07:34:07;;;;;;;5.27;2.43;;;20.10;99.90;;;;;;5045686;28;20560;-38
2021/07/07 07:36:33;;;;;;;2.97;1.90;;;20.20;99.90;;;;;;5047559;28;20437;-38
2021/07/07 07:39:05;;;;;;;2.83;2.33;;;20.40;99.90;;;;;;5048001;28;20194;-38
2021/07/07 07:41:33;;;;;;;2.70;2.13;;;20.50;99.90;;;;;;5046762;28;20251;-39
2021/07/07 07:43:58;;;;;;;5.50;2.20;;;20.60;99.90;;;;;;5046414;28;20796;-39
2021/07/07 07:46:29;;;;;;;4.17;2.00;;;20.70;99.90;;;;;;5039660;28;20455;-39
2021/07/07 07:48:55;;;;;;;6.13;2.13;;;20.80;99.90;;;;;;5047720;28;20193;-38
2021/07/07 07:51:22;;;;;;;4.57;2.03;;;20.90;99.90;;;;;;5047977;28;20442;-39
2021/07/07 07:53:48;;;;;;;4.50;2.60;;;21.00;99.90;;;;;;5047349;28;20464;-39
2021/07/07 07:56:13;;;;;;;4.77;2.83;;;21.10;99.90;;;;;;5047893;28;20445;-38
2021/07/07 07:58:39;;;;;;;4.93;2.30;;;21.20;99.90;;;;;;5047957;28;20789;-38
2021/07/07 08:01:05;;;;;;;3.40;2.67;;;21.10;99.90;;;;;;5040572;28;20671;-38
2021/07/07 08:03:30;;;;;;;7.07;2.60;;;21.00;99.90;;;;;;5043259;28;20368;-38
2021/07/07 08:05:56;;;;;;;3.80;2.37;;;20.90;99.90;;;;;;5043877;28;20602;-38
2021/07/07 08:08:22;;;;;;;3.87;2.30;;;20.80;99.90;;;;;;5047776;28;20205;-38
2021/07/07 08:10:47;;;;;;;4.40;2.50;;;20.90;99.90;;;;;;5047712;28;20189;-38
2021/07/07 08:13:13;;;;;;;3.67;2.70;;;20.90;99.90;;;;;;5046964;28;20278;-38
2021/07/07 08:15:39;;;;;;;5.20;2.97;;;20.90;99.90;;;;;;5042095;28;20248;-38
2021/07/07 08:18:05;;;;;;;7.13;2.90;;;20.90;99.90;;;;;;5040381;28;20213;-38
2021/07/07 08:20:31;;;;;;;4.53;2.50;;;20.90;99.90;;;;;;5047385;28;20458;-38
2021/07/07 08:22:56;;;;;;;5.00;3.10;;;20.90;99.90;;;;;;5046495;28;20214;-38
2021/07/07 08:25:22;;;;;;;3.57;2.30;;;21.00;99.90;;;;;;5050332;28;20192;-39
2021/07/07 08:27:48;;;;;;;4.20;2.50;;;21.00;99.90;;;;;;5067391;28;20593;-39
2021/07/07 08:30:15;;;;;;;3.50;2.43;;;21.10;99.90;;;;;;5065727;28;20283;-39
2021/07/07 08:32:41;;;;;;;4.30;2.10;;;21.10;99.90;;;;;;5037876;28;20432;-38
2021/07/07 08:35:08;;;;;;;5.13;2.77;;;21.20;99.90;;;;;;5046609;28;20432;-39
2021/07/07 08:37:35;;;;;;;4.33;2.40;;;21.30;99.90;;;;;;5047437;28;20838;-39
2021/07/07 08:40:01;;;;;;;6.17;2.80;;;21.50;99.90;;;;;;5046993;28;20522;-38
2021/07/07 08:42:26;;;;;;;6.97;2.13;;;21.70;99.90;;;;;;5047169;28;20471;-38
2021/07/07 08:44:52;;;;;;;5.97;2.90;;;21.70;99.90;;;;;;5045968;28;20420;-38
2021/07/07 08:47:18;;;;;;;4.83;2.67;;;21.80;99.90;;;;;;5036712;28;20196;-39
2021/07/07 08:49:44;;;;;;;4.00;2.00;;;21.80;99.90;;;;;;5046859;28;20200;-39
2021/07/07 08:52:10;;;;;;;3.93;2.53;;;21.90;99.90;;;;;;5046360;28;20207;-39
2021/07/07 08:54:35;;;;;;;6.20;2.70;;;22.00;99.90;;;;;;5045830;28;20440;-39
2021/07/07 08:57:07;;;;;;;4.30;2.80;;;22.10;99.90;;;;;;5035751;28;20189;-39
2021/07/07 08:59:34;;;;;;;4.67;2.40;;;22.20;99.90;;;;;;5049048;28;20221;-38
2021/07/07 09:02:08;;;;;;;6.83;3.17;;;22.30;99.90;;;;;;5039944;28;20816;-39
2021/07/07 09:04:42;;;;;;;4.50;2.10;;;22.40;99.90;;;;;;5046874;28;20419;-39
2021/07/07 09:07:10;;;;;;;4.20;2.23;;;22.50;99.90;;;;;;5044035;28;20426;-39
2021/07/07 09:09:41;;;;;;;5.13;2.77;;;22.60;99.90;;;;;;5043480;28;20768;-38
2021/07/07 09:12:39;;;;;;;4.30;2.67;;;22.60;99.90;;;;;;5045079;28;20428;-39
2021/07/07 09:15:05;;;;;;;5.53;2.53;;;22.70;99.90;;;;;;5030466;28;20441;-38
2021/07/07 09:17:45;;;;;;;4.00;2.60;;;22.80;99.90;;;;;;5031074;28;20442;-38
2021/07/07 09:20:20;;;;;;;4.73;2.43;;;22.80;99.90;;;;;;5038308;28;20411;-39
2021/07/07 09:22:46;;;;;;;9.60;2.07;;;23.00;99.90;;;;;;5044467;28;20459;-38
2021/07/07 09:25:14;;;;;;;6.07;2.50;;;23.00;99.90;;;;;;5044556;28;20420;-39
2021/07/07 09:27:40;;;;;;;3.77;2.67;;;23.10;99.90;;;;;;5044044;28;20515;-39
2021/07/07 09:30:12;;;;;;;3.20;2.00;;;23.20;99.90;;;;;;5046322;28;20420;-39
2021/07/07 09:32:46;;;;;;;3.97;2.00;;;23.10;99.90;;;;;;5032338;28;20480;-39
2021/07/07 09:35:15;;;;;;;3.13;2.43;;;23.20;99.90;;;;;;5045393;28;20470;-39
2021/07/07 09:37:49;;;;;;;3.47;2.30;;;23.20;99.90;;;;;;5046145;28;20432;-38
2021/07/07 09:40:15;;;;;;;3.20;2.20;;;23.20;99.70;;;;;;5046201;28;20428;-38
2021/07/07 09:42:42;;;;;;;5.10;2.70;;;23.20;99.90;;;;;;5045952;28;20471;-39
2021/07/07 09:45:16;;;;;;;9.10;2.50;;;23.20;99.90;;;;;;5045543;28;20515;-39
2021/07/07 09:47:43;;;;;;;4.13;2.20;;;23.20;99.90;;;;;;5035958;28;20866;-39
2021/07/07 09:50:11;;;;;;;3.60;2.20;;;23.30;99.90;;;;;;5046025;28;20427;-39
2021/07/07 09:52:36;;;;;;;3.73;2.00;;;23.30;99.50;;;;;;5044472;28;20431;-38
2021/07/07 09:55:08;;;;;;;3.93;2.00;;;23.40;99.50;;;;;;5045389;28;20432;-39
2021/07/07 09:57:44;;;;;;;5.63;2.50;;;23.50;99.40;;;;;;5046792;28;20442;-38
2021/07/07 10:00:17;;;;;;;2.43;2.20;;;23.50;99.10;;;;;;5049987;28;20768;-39
2021/07/07 10:02:46;;;;;;;3.20;2.00;;;23.50;99.90;;;;;;5037946;28;20516;-38
2021/07/07 10:05:15;;;;;;;2.97;2.20;;;23.50;99.20;;;;;;5049719;28;20424;-39
2021/07/07 10:07:43;;;;;;;4.20;2.13;;;23.50;99.00;;;;;;5049774;28;20447;-38
2021/07/07 10:10:11;;;;;;;4.33;2.50;;;23.40;98.80;;;;;;5049942;28;20529;-38
2021/07/07 10:12:38;;;;;;;3.47;2.60;;;23.20;98.90;;;;;;5047050;28;20432;-39
2021/07/07 10:15:04;;;;;;;8.47;2.90;;;23.30;99.40;;;;;;5029504;28;20544;-39
2021/07/07 10:17:30;;;;;;;5.97;2.20;;;23.30;99.40;;;;;;5040458;28;20498;-38
2021/07/07 10:19:57;;;;;;;3.63;2.20;;;23.30;99.20;;;;;;5042265;28;20427;-39
2021/07/07 10:22:24;;;;;;;3.13;2.20;;;23.30;99.20;;;;;;5047934;28;20464;-38
2021/07/07 10:24:51;;;;;;;3.40;2.10;;;23.40;99.60;;;;;;5048845;28;20420;-39
2021/07/07 10:27:17;;;;;;;2.40;1.90;;;23.50;99.30;;;;;;5049154;28;20452;-39
2021/07/07 10:29:45;;;;;;;2.30;1.90;;;23.60;98.80;;;;;;5048348;28;20506;-39
2021/07/07 10:32:15;;;;;;;2.70;1.90;;;23.50;98.30;;;;;;5043353;28;20730;-39
2021/07/07 10:34:40;;;;;;;7.07;2.27;;;23.40;98.20;;;;;;5045209;28;20435;-38
2021/07/07 10:37:07;;;;;;;3.70;2.97;;;23.40;98.60;;;;;;5049203;28;20436;-39
2021/07/07 10:39:33;;;;;;;3.43;2.50;;;23.50;99.00;;;;;;5049055;28;20442;-38
2021/07/07 10:42:04;;;;;;;3.60;2.00;;;23.60;98.80;;;;;;5049237;28;20738;-39
2021/07/07 10:44:37;;;;;;;4.70;2.17;;;23.70;98.20;;;;;;5047483;28;20197;-39
2021/07/07 10:47:09;;;;;;;4.30;2.40;;;23.60;98.20;;;;;;5043599;28;20417;-38
2021/07/07 10:49:45;;;;;;;4.47;2.13;;;23.70;98.60;;;;;;5046048;28;20450;-39
2021/07/07 10:52:14;;;;;;;2.33;1.97;;;23.70;98.90;;;;;;5047499;28;20458;-39
2021/07/07 10:54:52;;;;;;;3.43;1.90;;;23.70;99.00;;;;;;5042099;28;20473;-39
2021/07/07 10:57:22;;;;;;;3.27;2.30;;;23.60;98.90;;;;;;5043640;28;20443;-39
2021/07/07 10:59:48;;;;;;;4.27;2.43;;;23.50;99.50;;;;;;5049161;28;20546;-39
2021/07/07 11:02:22;;;;;;;4.00;2.53;;;23.40;98.80;;;;;;5042329;28;21064;-39
2021/07/07 11:04:50;;;;;;;3.13;2.23;;;23.20;99.10;;;;;;5038530;28;20197;-39
2021/07/07 11:07:26;;;;;;;3.97;2.10;;;23.10;99.10;;;;;;5048867;28;20509;-38
2021/07/07 11:09:53;;;;;;;3.97;2.30;;;23.10;99.20;;;;;;5035404;28;20481;-39
2021/07/07 11:12:20;;;;;;;4.67;2.70;;;23.00;99.20;;;;;;5048619;28;20432;-39
2021/07/07 11:15:08;;;;;;;3.07;2.77;;;22.90;99.60;;;;;;5047902;28;20783;-38
2021/07/07 11:17:34;;;;;;;4.03;2.50;;;22.90;99.90;;;;;;5041586;28;20433;-39
2021/07/07 11:20:13;;;;;;;4.17;3.00;;;22.80;99.90;;;;;;5041034;28;20428;-39
2021/07/07 11:22:42;;;;;;;4.23;2.77;;;22.70;99.90;;;;;;5046559;28;20823;-39
2021/07/07 11:25:13;;;;;;;6.10;2.70;;;22.70;99.90;;;;;;5047693;28;20478;-39
2021/07/07 11:27:40;;;;;;;2.70;2.50;;;22.60;99.90;;;;;;5048484;28;20416;-39
2021/07/07 11:30:08;;;;;;;4.03;2.77;;;22.60;99.90;;;;;;5048437;28;20808;-39
2021/07/07 11:32:39;;;;;;;4.50;2.90;;;22.70;99.90;;;;;;5041076;28;20472;-39
2021/07/07 11:35:10;;;;;;;3.77;2.70;;;22.80;99.90;;;;;;5044791;28;20420;-39
2021/07/07 11:37:37;;;;;;;3.70;2.63;;;22.80;99.90;;;;;;5048302;28;20480;-39
2021/07/07 11:40:09;;;;;;;2.73;2.23;;;22.90;99.90;;;;;;5046468;28;20927;-39
2021/07/07 11:42:50;;;;;;;4.50;2.70;;;23.00;99.90;;;;;;5048173;28;20837;-39
2021/07/07 11:45:20;;;;;;;4.93;2.87;;;23.00;99.90;;;;;;5048090;28;20420;-39
2021/07/07 11:47:51;;;;;;;5.00;2.77;;;23.00;99.90;;;;;;5041406;28;20502;-39
2021/07/07 11:50:17;;;;;;;5.60;3.47;;;23.10;99.90;;;;;;5044406;28;20417;-39
2021/07/07 11:53:05;;;;;;;5.13;2.77;;;23.10;99.90;;;;;;5047805;28;20724;-39
2021/07/07 11:55:47;;;;;;;4.63;2.70;;;23.30;99.70;;;;;;5063984;28;20197;-39
2021/07/07 11:58:28;;;;;;;5.33;3.00;;;23.40;99.50;;;;;;5047948;28;20459;-39
2021/07/07 12:00:56;;;;;;;3.60;2.33;;;23.60;99.30;;;;;;5047804;28;20863;-38
2021/07/07 12:03:23;;;;;;;5.10;2.83;;;23.60;99.20;;;;;;5036229;28;20805;-39
2021/07/07 12:05:50;;;;;;;4.50;2.80;;;23.50;99.50;;;;;;5057155;28;21161;-39
2021/07/07 12:08:20;;;;;;;3.80;2.50;;;23.50;99.50;;;;;;5047424;28;21001;-38
2021/07/07 12:10:46;;;;;;;5.57;2.63;;;23.40;99.30;;;;;;5047958;28;20459;-39
2021/07/07 12:13:23;;;;;;;4.80;2.50;;;23.40;99.40;;;;;;5045481;28;20471;-38
2021/07/07 12:15:49;;;;;;;3.20;2.33;;;23.40;99.30;;;;;;5045766;28;20539;-39
2021/07/07 12:18:28;;;;;;;3.30;2.30;;;23.30;98.90;;;;;;5033631;28;20843;-39
2021/07/07 12:20:55;;;;;;;3.17;2.00;;;23.30;98.50;;;;;;5047095;28;20193;-39
2021/07/07 12:23:22;;;;;;;3.23;2.30;;;23.30;98.00;;;;;;5046962;28;20870;-39
2021/07/07 12:26:09;;;;;;;4.23;2.30;;;23.40;98.70;;;;;;5050946;28;20419;-39
2021/07/07 12:28:34;;;;;;;2.53;1.60;;;23.60;98.90;;;;;;5062629;28;20529;-39
2021/07/07 12:31:00;;;;;;;6.23;2.00;;;23.80;97.60;;;;;;5067979;28;20577;-39
2021/07/07 12:33:30;;;;;;;2.97;2.17;;;24.00;97.50;;;;;;5046689;28;20268;-39
2021/07/07 12:35:56;;;;;;;4.40;1.80;;;24.10;97.70;;;;;;5047154;28;20431;-39
2021/07/07 12:38:22;;;;;;;2.57;2.10;;;24.20;97.00;;;;;;5047084;28;20441;-39
2021/07/07 12:40:55;;;;;;;4.43;2.03;;;24.20;96.80;;;;;;5047499;28;20421;-39
2021/07/07 12:43:41;;;;;;;5.40;2.47;;;24.10;96.50;;;;;;5046122;28;20222;-39
2021/07/07 12:46:08;;;;;;;3.67;2.00;;;24.10;96.50;;;;;;5047122;28;20436;-39
2021/07/07 12:48:51;;;;;;;4.07;2.43;;;24.10;97.00;;;;;;5042242;28;20884;-39
2021/07/07 12:51:28;;;;;;;4.67;2.10;;;24.00;96.40;;;;;;5046913;28;20416;-39